createdAt,value
2018-10-12T00:00:43.307Z,17.27
2018-10-12T00:03:13.904Z,18.70
2018-10-12T00:05:44.095Z,17.03
2018-10-12T00:08:13.961Z,16.23
2018-10-12T00:10:43.794Z,16.73
2018-10-12T00:13:13.599Z,16.43
2018-10-12T00:15:43.367Z,14.20
2018-10-12T00:18:13.247Z,15.80
2018-10-12T00:20:43.001Z,14.80
2018-10-12T00:23:12.775Z,14.97
2018-10-12T00:25:42.541Z,15.20
2018-10-12T00:28:12.357Z,15.23
2018-10-12T00:30:42.186Z,15.77
2018-10-12T00:33:12.083Z,16.23
2018-10-12T00:35:41.930Z,15.23
2018-10-12T00:38:11.704Z,15.80
2018-10-12T00:40:42.441Z,18.43
2018-10-12T00:43:12.195Z,17.33
2018-10-12T00:45:41.990Z,16.83
2018-10-12T00:48:12.006Z,16.87
2018-10-12T00:50:41.747Z,14.43
2018-10-12T00:53:11.482Z,15.57
2018-10-12T00:55:41.240Z,15.67
2018-10-12T00:58:11.214Z,18.33
2018-10-12T01:00:41.013Z,16.20
2018-10-12T01:03:10.886Z,16.60
2018-10-12T01:05:40.811Z,15.07
2018-10-12T01:08:10.818Z,16.33
2018-10-12T01:10:40.717Z,15.07
2018-10-12T01:13:10.577Z,16.07
2018-10-12T01:15:40.327Z,15.97
2018-10-12T01:18:10.055Z,16.03
2018-10-12T01:20:39.962Z,15.03
2018-10-12T01:23:09.893Z,15.10
2018-10-12T01:25:39.808Z,13.70
2018-10-12T01:28:09.744Z,16.53
2018-10-12T01:30:39.713Z,14.97
2018-10-12T01:33:09.558Z,15.77
2018-10-12T01:35:39.502Z,17.13
2018-10-12T01:38:09.372Z,17.93
2018-10-12T01:40:39.238Z,14.30
2018-10-12T01:43:09.027Z,14.50
2018-10-12T01:45:38.811Z,14.67
2018-10-12T01:48:08.742Z,14.27
2018-10-12T01:50:38.642Z,13.17
2018-10-12T01:53:08.521Z,15.53
2018-10-12T01:55:38.313Z,13.23
2018-10-12T01:58:08.198Z,13.93
2018-10-12T02:00:38.059Z,14.43
2018-10-12T02:03:07.908Z,14.43
2018-10-12T02:05:37.734Z,14.50
2018-10-12T02:08:07.658Z,14.77
2018-10-12T02:10:37.442Z,14.73
2018-10-12T02:13:07.612Z,15.90
2018-10-12T02:15:37.412Z,13.60
2018-10-12T02:18:07.274Z,14.33
2018-10-12T02:20:37.078Z,15.37
2018-10-12T02:23:07.438Z,14.33
2018-10-12T02:25:38.049Z,13.13
2018-10-12T02:28:07.881Z,13.20
2018-10-12T02:30:37.769Z,12.23
2018-10-12T02:33:07.717Z,14.87
2018-10-12T02:35:37.502Z,14.93
2018-10-12T02:38:07.549Z,14.23
2018-10-12T02:40:37.483Z,13.17
2018-10-12T02:43:07.458Z,18.07
2018-10-12T02:45:37.161Z,12.53
2018-10-12T02:48:07.200Z,12.47
2018-10-12T02:50:36.997Z,12.73
2018-10-12T02:53:06.930Z,13.70
2018-10-12T02:55:36.904Z,14.63
2018-10-12T02:58:06.818Z,12.47
2018-10-12T03:00:36.835Z,11.73
2018-10-12T03:03:06.633Z,14.47
2018-10-12T03:05:36.380Z,14.00
2018-10-12T03:08:06.195Z,12.10
2018-10-12T03:10:35.994Z,11.90
2018-10-12T03:13:05.877Z,12.87
2018-10-12T03:15:35.764Z,13.00
2018-10-12T03:18:05.755Z,13.13
2018-10-12T03:20:35.545Z,12.80
2018-10-12T03:23:05.465Z,13.57
2018-10-12T03:25:35.387Z,12.07
2018-10-12T03:28:22.698Z,10.77
2018-10-12T03:30:53.839Z,12.23
2018-10-12T03:33:23.797Z,10.33
2018-10-12T03:35:53.680Z,11.80
2018-10-12T03:38:23.490Z,12.80
2018-10-12T03:40:53.337Z,10.97
2018-10-12T03:43:23.253Z,16.20
2018-10-12T03:45:53.083Z,11.67
2018-10-12T03:48:22.952Z,11.27
2018-10-12T03:50:52.950Z,11.83
2018-10-12T03:53:22.669Z,11.47
2018-10-12T03:55:52.509Z,16.60
2018-10-12T03:58:22.411Z,11.47
2018-10-12T04:00:52.222Z,15.10
2018-10-12T04:03:21.978Z,12.90
2018-10-12T04:05:51.780Z,12.43
2018-10-12T04:08:21.549Z,12.27
2018-10-12T04:10:51.350Z,12.70
2018-10-12T04:13:21.190Z,11.40
2018-10-12T04:15:51.078Z,11.50
2018-10-12T04:18:20.911Z,13.70
2018-10-12T04:20:50.766Z,12.10
2018-10-12T04:23:20.629Z,11.57
2018-10-12T04:25:51.038Z,10.60
2018-10-12T04:28:20.933Z,10.87
2018-10-12T04:30:50.718Z,16.53
2018-10-12T04:33:20.503Z,13.50
2018-10-12T04:35:50.278Z,11.23
2018-10-12T04:38:20.161Z,11.50
2018-10-12T04:41:03.407Z,13.60
2018-10-12T04:43:34.216Z,11.77
2018-10-12T04:46:07.826Z,11.47
2018-10-12T04:48:38.903Z,11.20
2018-10-12T04:51:14.275Z,12.00
2018-10-12T04:53:44.362Z,16.50
2018-10-12T04:56:15.537Z,12.10
2018-10-12T04:58:45.393Z,11.10
2018-10-12T05:01:15.357Z,10.50
2018-10-12T05:03:45.101Z,10.63
2018-10-12T05:06:15.030Z,11.37
2018-10-12T05:08:47.789Z,12.57
2018-10-12T05:11:17.620Z,11.03
2018-10-12T05:13:47.542Z,14.67
2018-10-12T05:16:17.398Z,13.80
2018-10-12T05:18:47.315Z,12.23
2018-10-12T05:21:17.175Z,13.90
2018-10-12T05:23:47.139Z,14.67
2018-10-12T05:26:17.082Z,13.23
2018-10-12T05:28:46.909Z,11.07
2018-10-12T05:31:16.798Z,15.93
2018-10-12T05:33:46.667Z,10.17
2018-10-12T05:36:16.464Z,11.20
2018-10-12T05:38:46.209Z,11.10
2018-10-12T05:41:15.961Z,14.50
2018-10-12T05:43:45.773Z,12.00
2018-10-12T05:46:15.537Z,12.70
2018-10-12T05:49:02.053Z,10.30
2018-10-12T05:51:31.807Z,11.60
2018-10-12T05:54:01.884Z,12.20
2018-10-12T05:56:34.685Z,14.00
2018-10-12T05:59:05.259Z,12.00
2018-10-12T06:01:35.044Z,11.23
2018-10-12T06:04:04.912Z,16.10
2018-10-12T06:06:34.712Z,15.00
2018-10-12T06:09:06.057Z,10.93
2018-10-12T06:11:35.966Z,11.10
2018-10-12T06:14:05.929Z,10.17
2018-10-12T06:16:35.613Z,10.97
2018-10-12T06:19:05.371Z,13.83
2018-10-12T06:21:35.171Z,11.10
2018-10-12T06:24:04.928Z,12.73
2018-10-12T06:26:34.710Z,14.33
2018-10-12T06:29:04.460Z,11.57
2018-10-12T06:31:34.241Z,14.93
2018-10-12T06:34:03.954Z,11.53
2018-10-12T06:36:33.700Z,13.77
2018-10-12T06:39:03.499Z,11.70
2018-10-12T06:41:33.370Z,10.97
2018-10-12T06:44:03.118Z,12.37
2018-10-12T06:46:33.113Z,13.57
2018-10-12T06:49:02.855Z,16.50
2018-10-12T06:51:32.643Z,10.70
2018-10-12T06:54:02.382Z,12.40
2018-10-12T06:56:33.229Z,12.90
2018-10-12T06:59:03.120Z,11.97
2018-10-12T07:01:32.953Z,14.33
2018-10-12T07:04:02.798Z,13.43
2018-10-12T07:06:32.610Z,14.10
2018-10-12T07:09:02.631Z,17.83
2018-10-12T07:11:32.542Z,9.67
2018-10-12T07:14:02.542Z,11.00
2018-10-12T07:16:32.376Z,9.80
2018-10-12T07:19:02.090Z,11.10
2018-10-12T07:21:31.966Z,12.60
2018-10-12T07:24:01.830Z,14.27
2018-10-12T07:26:31.823Z,10.47
2018-10-12T07:29:01.617Z,11.40
2018-10-12T07:31:31.463Z,9.13
2018-10-12T07:34:01.230Z,9.30
2018-10-12T07:36:30.963Z,9.17
2018-10-12T07:39:00.826Z,13.87
2018-10-12T07:41:30.710Z,15.47
2018-10-12T07:44:00.474Z,12.57
2018-10-12T07:46:30.319Z,7.90
2018-10-12T07:49:00.143Z,14.33
2018-10-12T07:51:29.954Z,8.63
2018-10-12T07:53:59.739Z,12.83
2018-10-12T07:56:29.610Z,9.40
2018-10-12T07:58:59.574Z,11.83
2018-10-12T08:01:29.400Z,9.70
2018-10-12T08:03:59.405Z,9.00
2018-10-12T08:06:29.265Z,10.93
2018-10-12T08:08:59.030Z,10.10
2018-10-12T08:11:29.023Z,9.27
2018-10-12T08:13:58.819Z,15.23
2018-10-12T08:16:28.604Z,7.63
2018-10-12T08:18:58.545Z,9.07
2018-10-12T08:21:28.427Z,8.70
2018-10-12T08:23:58.339Z,11.00
2018-10-12T08:26:28.179Z,7.90
2018-10-12T08:28:57.956Z,12.90
2018-10-12T08:31:27.870Z,25.83
2018-10-12T08:33:57.723Z,10.90
2018-10-12T08:36:27.520Z,11.53
2018-10-12T08:38:57.285Z,8.47
2018-10-12T08:41:27.155Z,8.00
2018-10-12T08:43:56.853Z,10.13
2018-10-12T08:46:26.673Z,11.63
2018-10-12T08:48:56.366Z,8.00
2018-10-12T08:51:26.191Z,9.63
2018-10-12T08:53:55.980Z,6.90
2018-10-12T08:56:25.744Z,10.00
2018-10-12T08:58:55.467Z,7.77
2018-10-12T09:01:25.285Z,9.17
2018-10-12T09:03:55.067Z,14.50
2018-10-12T09:06:24.843Z,9.97
2018-10-12T09:08:54.658Z,9.07
2018-10-12T09:11:24.385Z,6.73
2018-10-12T09:13:54.187Z,9.90
2018-10-12T09:16:24.002Z,8.67
2018-10-12T09:18:53.790Z,7.80
2018-10-12T09:21:23.603Z,10.23
2018-10-12T09:23:53.346Z,7.17
2018-10-12T09:26:23.147Z,10.60
2018-10-12T09:28:52.914Z,9.57
2018-10-12T09:31:23.008Z,9.03
2018-10-12T09:33:52.421Z,7.83
2018-10-12T09:36:22.230Z,9.40
2018-10-12T09:38:52.158Z,7.50
2018-10-12T09:41:21.962Z,9.50
2018-10-12T09:43:51.713Z,9.40
2018-10-12T09:46:21.531Z,10.00
2018-10-12T09:48:51.331Z,7.53
2018-10-12T09:51:21.330Z,7.70
2018-10-12T09:53:51.201Z,6.17
2018-10-12T09:56:20.973Z,7.37
2018-10-12T09:58:50.720Z,6.83
2018-10-12T10:01:25.679Z,7.47
2018-10-12T10:04:00.558Z,10.23
2018-10-12T10:06:30.465Z,5.03
2018-10-12T10:09:00.422Z,10.20
2018-10-12T10:11:30.229Z,8.47
2018-10-12T10:14:00.409Z,4.30
2018-10-12T10:16:29.759Z,10.73
2018-10-12T10:18:59.586Z,9.70
2018-10-12T10:21:29.639Z,6.33
2018-10-12T10:23:59.410Z,7.03
2018-10-12T10:26:29.150Z,4.97
2018-10-12T10:28:58.941Z,6.87
2018-10-12T10:31:28.835Z,6.37
2018-10-12T10:33:58.557Z,4.10
2018-10-12T10:36:28.330Z,3.93
2018-10-12T10:38:58.073Z,8.13
2018-10-12T10:41:27.828Z,4.43
2018-10-12T10:43:57.682Z,7.43
2018-10-12T10:46:28.615Z,4.63
2018-10-12T10:48:58.318Z,4.80
2018-10-12T10:51:28.181Z,7.47
2018-10-12T10:53:57.929Z,5.40
2018-10-12T10:56:28.012Z,6.60
2018-10-12T10:58:57.747Z,7.90
2018-10-12T11:01:27.461Z,6.50
2018-10-12T11:03:57.191Z,5.73
2018-10-12T11:06:27.226Z,4.03
2018-10-12T11:08:56.825Z,3.50
2018-10-12T11:11:26.601Z,5.30
2018-10-12T11:13:56.401Z,4.10
2018-10-12T11:16:26.273Z,3.80
2018-10-12T11:18:56.275Z,7.70
2018-10-12T11:21:26.014Z,3.30
2018-10-12T11:23:55.832Z,3.80
2018-10-12T11:26:26.025Z,3.53
2018-10-12T11:28:55.705Z,5.37
2018-10-12T11:31:25.388Z,5.00
2018-10-12T11:33:55.221Z,4.50
2018-10-12T11:36:24.938Z,4.57
2018-10-12T11:38:54.824Z,5.90
2018-10-12T11:41:31.231Z,5.20
2018-10-12T11:44:00.973Z,5.00
2018-10-12T11:46:30.668Z,6.80
2018-10-12T11:49:00.489Z,8.50
2018-10-12T11:51:30.306Z,3.50
2018-10-12T11:54:00.053Z,5.83
2018-10-12T11:56:30.048Z,8.47
2018-10-12T11:58:59.790Z,7.17
2018-10-12T12:01:29.661Z,5.70
2018-10-12T12:03:59.357Z,3.20
2018-10-12T12:06:29.126Z,11.53
2018-10-12T12:08:58.893Z,3.90
2018-10-12T12:11:28.608Z,3.60
2018-10-12T12:13:58.588Z,4.33
2018-10-12T12:16:28.493Z,7.30
2018-10-12T12:18:58.226Z,5.27
2018-10-12T12:21:28.162Z,3.10
2018-10-12T12:23:57.876Z,6.60
2018-10-12T12:26:27.583Z,4.10
2018-10-12T12:28:57.437Z,5.43
2018-10-12T12:31:27.240Z,8.90
2018-10-12T12:33:56.942Z,4.30
2018-10-12T12:36:26.762Z,5.33
2018-10-12T12:38:56.645Z,8.80
2018-10-12T12:41:26.526Z,6.47
2018-10-12T12:43:56.359Z,5.67
2018-10-12T12:46:26.272Z,8.40
2018-10-12T12:48:56.638Z,4.63
2018-10-12T12:51:25.911Z,7.63
2018-10-12T12:53:55.787Z,3.53
2018-10-12T12:56:25.547Z,4.40
2018-10-12T12:58:55.443Z,5.27
2018-10-12T13:01:25.215Z,3.77
2018-10-12T13:03:55.119Z,4.73
2018-10-12T13:06:25.008Z,3.57
2018-10-12T13:08:54.692Z,8.90
2018-10-12T13:11:24.437Z,6.73
2018-10-12T13:13:54.191Z,9.30
2018-10-12T13:16:24.171Z,5.90
2018-10-12T13:18:54.063Z,5.00
2018-10-12T13:21:23.741Z,4.73
2018-10-12T13:23:53.513Z,5.80
2018-10-12T13:26:23.409Z,5.23
2018-10-12T13:28:53.004Z,5.17
2018-10-12T13:31:22.986Z,5.53
2018-10-12T13:33:53.245Z,4.30
2018-10-12T13:36:23.133Z,5.03
2018-10-12T13:38:52.829Z,2.37
2018-10-12T13:41:22.694Z,6.10
2018-10-12T13:43:52.442Z,5.97
2018-10-12T13:46:22.342Z,6.43
2018-10-12T13:48:52.132Z,8.13
2018-10-12T13:51:21.989Z,5.00
2018-10-12T13:53:52.922Z,9.27
2018-10-12T13:56:23.229Z,2.13
2018-10-12T13:58:53.069Z,7.00
2018-10-12T14:01:23.086Z,2.83
2018-10-12T14:03:52.833Z,3.83
2018-10-12T14:06:22.791Z,3.10
2018-10-12T14:08:52.462Z,6.87
2018-10-12T14:11:22.449Z,9.33
2018-10-12T14:13:52.867Z,4.20
2018-10-12T14:16:22.635Z,4.03
2018-10-12T14:18:52.664Z,4.30
2018-10-12T14:21:22.249Z,3.80
2018-10-12T14:23:52.032Z,4.97
2018-10-12T14:26:21.715Z,2.53
2018-10-12T14:28:51.497Z,4.17
2018-10-12T14:31:21.679Z,3.43
2018-10-12T14:33:51.366Z,3.00
2018-10-12T14:36:21.084Z,3.80
2018-10-12T14:38:50.865Z,3.17
2018-10-12T14:41:20.650Z,3.30
2018-10-12T14:43:50.400Z,5.67
2018-10-12T14:46:20.260Z,6.67
2018-10-12T14:48:50.098Z,9.60
2018-10-12T14:51:20.816Z,5.50
2018-10-12T14:53:50.542Z,4.80
2018-10-12T14:56:20.263Z,3.60
2018-10-12T14:58:49.999Z,6.23
2018-10-12T15:01:19.850Z,5.33
2018-10-12T15:03:49.547Z,4.90
2018-10-12T15:06:19.335Z,5.00
2018-10-12T15:08:49.157Z,8.50
2018-10-12T15:11:18.952Z,4.53
2018-10-12T15:13:49.701Z,8.43
2018-10-12T15:16:19.690Z,4.43
2018-10-12T15:18:49.502Z,5.30
2018-10-12T15:21:19.395Z,3.93
2018-10-12T15:23:49.221Z,4.33
2018-10-12T15:26:19.016Z,5.77
2018-10-12T15:28:48.831Z,4.07
2018-10-12T15:31:18.728Z,8.40
2018-10-12T15:33:48.630Z,7.10
2018-10-12T15:36:18.335Z,6.40
2018-10-12T15:38:48.272Z,4.60
2018-10-12T15:41:18.054Z,8.20
2018-10-12T15:43:47.856Z,3.10
2018-10-12T15:46:17.776Z,5.57
2018-10-12T15:48:47.518Z,6.67
2018-10-12T15:51:17.559Z,6.63
2018-10-12T15:53:48.152Z,4.50
2018-10-12T15:56:18.606Z,7.27
2018-10-12T15:58:48.913Z,4.27
2018-10-12T16:01:18.722Z,3.57
2018-10-12T16:03:48.522Z,4.83
2018-10-12T16:06:18.708Z,8.50
2018-10-12T16:08:48.538Z,5.73
2018-10-12T16:11:18.411Z,5.60
2018-10-12T16:15:17.717Z,6.10
2018-10-12T16:17:47.468Z,6.70
2018-10-12T16:20:17.273Z,6.23
2018-10-12T16:22:47.030Z,6.80
2018-10-12T16:26:05.080Z,7.07
2018-10-12T16:28:35.908Z,10.03
2018-10-12T16:31:05.671Z,5.20
2018-10-12T16:33:35.434Z,7.73
2018-10-12T16:36:05.341Z,5.30
2018-10-12T16:38:35.469Z,4.90
2018-10-12T16:41:05.474Z,6.47
2018-10-12T16:43:35.213Z,6.80
2018-10-12T16:46:05.080Z,3.90
2018-10-12T16:48:34.962Z,7.53
2018-10-12T16:51:04.903Z,3.80
2018-10-12T16:53:34.887Z,7.90
2018-10-12T16:56:04.874Z,6.33
2018-10-12T16:58:34.632Z,7.67
2018-10-12T17:01:04.457Z,10.20
2018-10-12T17:03:34.304Z,7.10
2018-10-12T17:06:04.166Z,5.07
2018-10-12T17:08:34.068Z,6.33
2018-10-12T17:11:04.109Z,5.40
2018-10-12T17:13:34.738Z,4.20
2018-10-12T17:16:04.887Z,5.37
2018-10-12T17:18:34.870Z,7.27
2018-10-12T17:21:07.550Z,5.63
2018-10-12T17:23:37.487Z,8.70
2018-10-12T17:26:07.456Z,11.50
2018-10-12T17:28:37.288Z,5.10
2018-10-12T17:31:07.992Z,6.63
2018-10-12T17:33:38.862Z,7.67
2018-10-12T17:36:09.962Z,7.67
2018-10-12T17:38:40.825Z,11.33
2018-10-12T17:41:20.584Z,7.47
2018-10-12T17:43:50.370Z,6.67
2018-10-12T17:48:59.695Z,8.23
2018-10-12T17:51:30.138Z,7.77
2018-10-12T17:54:00.377Z,7.13
2018-10-12T17:56:31.067Z,14.20
2018-10-12T17:59:01.994Z,11.23
2018-10-12T18:01:35.476Z,9.63
2018-10-12T18:04:07.139Z,16.30
2018-10-12T18:06:37.948Z,10.03
2018-10-12T18:09:11.025Z,11.73
2018-10-12T18:11:42.053Z,11.00
2018-10-12T18:14:13.075Z,9.67
2018-10-12T18:16:43.679Z,10.23
2018-10-12T18:19:14.152Z,7.30
2018-10-12T18:24:23.590Z,7.00
2018-10-12T18:26:54.357Z,7.77
2018-10-12T18:29:24.383Z,7.90
2018-10-12T18:31:54.399Z,6.70
2018-10-12T18:34:24.590Z,8.87
2018-10-12T18:36:54.594Z,10.23
2018-10-12T18:39:24.503Z,6.97
2018-10-12T18:41:54.490Z,10.73
2018-10-12T18:44:24.636Z,8.13
2018-10-12T18:46:54.804Z,6.53
2018-10-12T18:49:24.569Z,9.77
2018-10-12T18:51:54.399Z,6.13
2018-10-12T18:54:24.161Z,6.10
2018-10-12T18:56:53.891Z,7.57
2018-10-12T18:59:23.725Z,10.10
2018-10-12T19:01:53.482Z,9.27
2018-10-12T19:04:23.433Z,12.23
2018-10-12T19:06:53.353Z,5.30
2018-10-12T19:09:23.197Z,6.33
2018-10-12T19:11:53.042Z,8.83
2018-10-12T19:14:23.005Z,10.07
2018-10-12T19:16:52.980Z,5.93
2018-10-12T19:19:22.829Z,7.20
2018-10-12T19:21:52.815Z,7.20
2018-10-12T19:24:22.891Z,5.47
2018-10-12T19:26:53.090Z,11.23
2018-10-12T19:29:23.273Z,9.03
2018-10-12T19:31:54.503Z,6.80
2018-10-12T19:34:26.709Z,11.20
2018-10-12T19:36:58.945Z,5.40
2018-10-12T19:39:29.925Z,7.00
2018-10-12T19:42:00.603Z,6.07
2018-10-12T19:44:32.388Z,7.77
2018-10-12T19:47:07.539Z,9.27
2018-10-12T19:49:40.826Z,8.07
2018-10-12T19:52:13.386Z,6.10
2018-10-12T19:54:46.039Z,18.43
2018-10-12T19:57:20.847Z,5.17
2018-10-12T19:59:51.279Z,7.17
2018-10-12T20:02:30.809Z,5.70
2018-10-12T20:05:03.660Z,8.97
2018-10-12T20:07:37.777Z,8.43
2018-10-12T20:10:18.955Z,7.80
2018-10-12T20:12:51.484Z,9.23
2018-10-12T20:15:30.416Z,7.43
2018-10-12T20:18:01.962Z,5.50
2018-10-12T20:20:35.010Z,11.83
2018-10-12T20:23:04.943Z,6.80
2018-10-12T20:25:38.119Z,4.77
2018-10-12T20:28:20.517Z,9.80
2018-10-12T20:30:58.750Z,6.90
2018-10-12T20:33:32.935Z,6.77
2018-10-12T20:36:09.179Z,9.20
2018-10-12T20:38:47.824Z,9.20
2018-10-12T20:41:21.781Z,8.47
2018-10-12T20:43:52.365Z,6.73
2018-10-12T20:46:26.198Z,5.10
2018-10-12T20:48:57.529Z,10.90
2018-10-12T20:51:31.586Z,8.73
2018-10-12T20:54:06.459Z,10.23
2018-10-12T20:56:37.225Z,9.17
2018-10-12T20:59:07.083Z,13.30
2018-10-12T21:01:36.909Z,9.97
2018-10-12T21:04:06.733Z,14.40
2018-10-12T21:06:36.424Z,7.60
2018-10-12T21:09:09.359Z,8.67
2018-10-12T21:11:39.105Z,9.27
2018-10-12T21:14:08.923Z,9.97
2018-10-12T21:16:38.688Z,9.73
2018-10-12T21:19:08.744Z,8.20
2018-10-12T21:21:38.522Z,12.47
2018-10-12T21:24:08.354Z,6.53
2018-10-12T21:26:38.158Z,7.97
2018-10-12T21:29:07.902Z,8.10
2018-10-12T21:31:37.652Z,8.80
2018-10-12T21:34:07.394Z,7.57
2018-10-12T21:36:37.107Z,11.90
2018-10-12T21:39:07.702Z,8.30
2018-10-12T21:41:37.505Z,6.83
2018-10-12T21:44:07.445Z,10.33
2018-10-12T21:46:37.354Z,16.13
2018-10-12T21:49:07.181Z,5.93
2018-10-12T21:51:37.077Z,7.10
2018-10-12T21:54:06.862Z,8.50
2018-10-12T21:56:36.810Z,5.70
2018-10-12T21:59:06.615Z,11.53
2018-10-12T22:01:36.524Z,7.40
2018-10-12T22:04:06.394Z,6.17
2018-10-12T22:06:36.151Z,8.93
2018-10-12T22:09:08.774Z,8.10
2018-10-12T22:11:38.594Z,8.00
2018-10-12T22:14:08.379Z,5.97
2018-10-12T22:16:38.890Z,6.63
2018-10-12T22:19:08.734Z,8.93
2018-10-12T22:21:38.570Z,10.63
2018-10-12T22:24:08.448Z,6.13
2018-10-12T22:26:38.193Z,8.97
2018-10-12T22:29:08.106Z,8.33
2018-10-12T22:31:38.106Z,5.90
2018-10-12T22:34:08.276Z,7.60
2018-10-12T22:36:38.082Z,10.20
2018-10-12T22:39:10.318Z,6.80
2018-10-12T22:41:40.164Z,7.40
2018-10-12T22:44:09.834Z,4.63
2018-10-12T22:46:39.557Z,7.80
2018-10-12T22:49:09.285Z,9.30
2018-10-12T22:51:39.154Z,8.40
2018-10-12T22:54:09.079Z,6.77
2018-10-12T22:56:38.859Z,6.27
2018-10-12T22:59:09.208Z,13.23
2018-10-12T23:01:38.966Z,7.40
2018-10-12T23:04:08.764Z,10.70
2018-10-12T23:06:38.474Z,7.40
2018-10-12T23:09:10.945Z,9.87
2018-10-12T23:11:41.013Z,7.67
2018-10-12T23:14:10.972Z,6.77
2018-10-12T23:16:40.722Z,7.90
2018-10-12T23:19:10.474Z,7.43
2018-10-12T23:21:40.297Z,6.33
2018-10-12T23:24:09.995Z,7.13
2018-10-12T23:26:39.704Z,5.87
2018-10-12T23:29:09.397Z,15.30
2018-10-12T23:31:39.184Z,10.57
2018-10-12T23:34:09.737Z,7.60
2018-10-12T23:36:39.500Z,7.57
2018-10-12T23:39:10.759Z,6.33
2018-10-12T23:41:40.524Z,8.40
2018-10-12T23:44:10.239Z,9.87
2018-10-12T23:46:39.929Z,10.90
2018-10-12T23:49:09.596Z,8.03
2018-10-12T23:51:39.389Z,7.67
2018-10-12T23:54:09.085Z,5.40
2018-10-12T23:56:38.816Z,6.87
2018-10-12T23:59:08.595Z,6.47
